sensor_id;sensor_type;location;lat;lon;timestamp;temperature;humidity
10883;DHT22;5494;51.796;10.952;2023-02-15T00:00:14;4.60;99.90
10883;DHT22;5494;51.796;10.952;2023-02-15T00:02:42;4.60;99.90
10883;DHT22;5494;51.796;10.952;2023-02-15T00:05:10;4.60;99.90
10883;DHT22;5494;51.796;10.952;2023-02-15T00:07:38;4.50;99.90
10883;DHT22;5494;51.796;10.952;2023-02-15T00:10:07;4.50;99.90
10883;DHT22;5494;51.796;10.952;2023-02-15T00:12:36;4.40;99.90
10883;DHT22;5494;51.796;10.952;2023-02-15T00:15:04;4.30;99.90
10883;DHT22;5494;51.796;10.952;2023-02-15T00:17:33;4.20;99.90
10883;DHT22;5494;51.796;10.952;2023-02-15T00:20:01;4.20;99.90
10883;DHT22;5494;51.796;10.952;2023-02-15T00:22:30;4.20;99.90
10883;DHT22;5494;51.796;10.952;2023-02-15T00:24:57;4.10;99.90
10883;DHT22;5494;51.796;10.952;2023-02-15T00:27:25;4.10;99.90
10883;DHT22;5494;51.796;10.952;2023-02-15T00:29:54;2.80;99.90
10883;DHT22;5494;51.796;10.952;2023-02-15T00:32:22;4.20;99.90
10883;DHT22;5494;51.796;10.952;2023-02-15T00:34:51;4.20;99.90
10883;DHT22;5494;51.796;10.952;2023-02-15T00:37:19;4.20;99.90
10883;DHT22;5494;51.796;10.952;2023-02-15T00:39:47;4.20;99.90
10883;DHT22;5494;51.796;10.952;2023-02-15T00:42:16;4.10;99.90
10883;DHT22;5494;51.796;10.952;2023-02-15T00:44:44;4.10;99.90
10883;DHT22;5494;51.796;10.952;2023-02-15T00:47:12;4.00;99.90
10883;DHT22;5494;51.796;10.952;2023-02-15T00:49:40;4.00;99.90
10883;DHT22;5494;51.796;10.952;2023-02-15T00:52:10;3.90;99.90
10883;DHT22;5494;51.796;10.952;2023-02-15T00:54:38;3.80;99.90
10883;DHT22;5494;51.796;10.952;2023-02-15T00:57:06;3.30;99.90
10883;DHT22;5494;51.796;10.952;2023-02-15T00:59:34;3.80;99.90
10883;DHT22;5494;51.796;10.952;2023-02-15T01:02:02;3.80;99.90
10883;DHT22;5494;51.796;10.952;2023-02-15T01:04:30;3.80;99.90
10883;DHT22;5494;51.796;10.952;2023-02-15T01:06:58;3.80;99.90
10883;DHT22;5494;51.796;10.952;2023-02-15T01:09:31;3.80;99.90
10883;DHT22;5494;51.796;10.952;2023-02-15T01:11:58;3.70;99.90
10883;DHT22;5494;51.796;10.952;2023-02-15T01:14:26;3.60;99.90
10883;DHT22;5494;51.796;10.952;2023-02-15T01:16:54;3.60;99.90
10883;DHT22;5494;51.796;10.952;2023-02-15T01:19:23;3.60;99.90
10883;DHT22;5494;51.796;10.952;2023-02-15T01:21:50;3.60;99.90
10883;DHT22;5494;51.796;10.952;2023-02-15T01:24:19;3.60;99.90
10883;DHT22;5494;51.796;10.952;2023-02-15T01:26:48;3.70;99.90
10883;DHT22;5494;51.796;10.952;2023-02-15T01:29:16;3.70;99.90
10883;DHT22;5494;51.796;10.952;2023-02-15T01:31:44;3.70;99.90
10883;DHT22;5494;51.796;10.952;2023-02-15T01:34:13;3.70;99.90
10883;DHT22;5494;51.796;10.952;2023-02-15T01:36:41;3.60;99.90
10883;DHT22;5494;51.796;10.952;2023-02-15T01:39:09;3.60;99.90
10883;DHT22;5494;51.796;10.952;2023-02-15T01:41:37;3.50;99.90
10883;DHT22;5494;51.796;10.952;2023-02-15T01:47:32;3.40;99.90
10883;DHT22;5494;51.796;10.952;2023-02-15T01:50:10;3.40;99.90
10883;DHT22;5494;51.796;10.952;2023-02-15T01:52:46;3.30;99.90
10883;DHT22;5494;51.796;10.952;2023-02-15T01:55:20;3.30;99.90
10883;DHT22;5494;51.796;10.952;2023-02-15T01:57:51;3.30;99.90
10883;DHT22;5494;51.796;10.952;2023-02-15T02:00:20;3.20;99.90
10883;DHT22;5494;51.796;10.952;2023-02-15T02:02:51;3.20;99.90
10883;DHT22;5494;51.796;10.952;2023-02-15T02:05:25;3.20;99.90
10883;DHT22;5494;51.796;10.952;2023-02-15T02:07:56;3.20;99.90
10883;DHT22;5494;51.796;10.952;2023-02-15T02:10:26;3.20;99.90
10883;DHT22;5494;51.796;10.952;2023-02-15T02:12:58;3.20;99.90
10883;DHT22;5494;51.796;10.952;2023-02-15T02:15:38;3.20;99.90
10883;DHT22;5494;51.796;10.952;2023-02-15T02:18:21;3.10;99.90
10883;DHT22;5494;51.796;10.952;2023-02-15T02:21:30;3.10;99.90
10883;DHT22;5494;51.796;10.952;2023-02-15T02:24:51;3.20;99.90
10883;DHT22;5494;51.796;10.952;2023-02-15T02:27:41;3.20;99.90
10883;DHT22;5494;51.796;10.952;2023-02-15T02:30:34;3.20;99.90
10883;DHT22;5494;51.796;10.952;2023-02-15T02:33:36;3.20;99.90
10883;DHT22;5494;51.796;10.952;2023-02-15T02:36:24;3.20;99.90
10883;DHT22;5494;51.796;10.952;2023-02-15T02:39:11;3.20;99.90
10883;DHT22;5494;51.796;10.952;2023-02-15T02:41:51;3.20;99.90
10883;DHT22;5494;51.796;10.952;2023-02-15T02:44:34;3.20;99.90
10883;DHT22;5494;51.796;10.952;2023-02-15T02:47:13;3.20;99.90
10883;DHT22;5494;51.796;10.952;2023-02-15T02:49:52;3.20;99.90
10883;DHT22;5494;51.796;10.952;2023-02-15T02:52:35;3.10;99.90
10883;DHT22;5494;51.796;10.952;2023-02-15T02:55:08;3.10;99.90
10883;DHT22;5494;51.796;10.952;2023-02-15T02:57:45;3.10;99.90
10883;DHT22;5494;51.796;10.952;2023-02-15T03:00:21;3.00;99.90
10883;DHT22;5494;51.796;10.952;2023-02-15T03:02:55;3.10;99.90
10883;DHT22;5494;51.796;10.952;2023-02-15T03:05:34;3.10;99.90
10883;DHT22;5494;51.796;10.952;2023-02-15T03:08:09;3.10;99.90
10883;DHT22;5494;51.796;10.952;2023-02-15T03:10:39;3.10;99.90
10883;DHT22;5494;51.796;10.952;2023-02-15T03:13:08;3.20;99.90
10883;DHT22;5494;51.796;10.952;2023-02-15T03:15:38;3.30;99.90
10883;DHT22;5494;51.796;10.952;2023-02-15T03:18:31;3.30;99.90
10883;DHT22;5494;51.796;10.952;2023-02-15T03:21:07;3.30;99.90
10883;DHT22;5494;51.796;10.952;2023-02-15T03:23:51;3.30;99.90
10883;DHT22;5494;51.796;10.952;2023-02-15T03:26:23;3.30;99.90
10883;DHT22;5494;51.796;10.952;2023-02-15T03:28:59;3.30;99.90
10883;DHT22;5494;51.796;10.952;2023-02-15T03:31:32;3.30;99.90
10883;DHT22;5494;51.796;10.952;2023-02-15T03:34:06;3.30;99.90
10883;DHT22;5494;51.796;10.952;2023-02-15T03:36:44;3.40;99.90
10883;DHT22;5494;51.796;10.952;2023-02-15T03:39:21;3.50;99.90
10883;DHT22;5494;51.796;10.952;2023-02-15T03:42:01;3.50;99.90
10883;DHT22;5494;51.796;10.952;2023-02-15T03:44:42;3.50;99.90
10883;DHT22;5494;51.796;10.952;2023-02-15T03:47:20;3.60;99.90
10883;DHT22;5494;51.796;10.952;2023-02-15T03:49:55;3.60;99.90
10883;DHT22;5494;51.796;10.952;2023-02-15T03:52:31;3.50;99.90
10883;DHT22;5494;51.796;10.952;2023-02-15T03:54:59;3.50;99.90
10883;DHT22;5494;51.796;10.952;2023-02-15T03:57:28;3.50;99.90
10883;DHT22;5494;51.796;10.952;2023-02-15T04:00:19;3.40;99.90
10883;DHT22;5494;51.796;10.952;2023-02-15T04:03:12;3.40;99.90
10883;DHT22;5494;51.796;10.952;2023-02-15T04:05:50;3.30;99.90
10883;DHT22;5494;51.796;10.952;2023-02-15T04:08:19;3.30;99.90
10883;DHT22;5494;51.796;10.952;2023-02-15T04:11:07;3.30;99.90
10883;DHT22;5494;51.796;10.952;2023-02-15T04:13:34;3.20;99.90
10883;DHT22;5494;51.796;10.952;2023-02-15T04:16:02;3.20;99.90
10883;DHT22;5494;51.796;10.952;2023-02-15T04:18:33;3.20;99.90
10883;DHT22;5494;51.796;10.952;2023-02-15T04:21:20;3.20;99.90
10883;DHT22;5494;51.796;10.952;2023-02-15T04:24:09;3.20;99.90
10883;DHT22;5494;51.796;10.952;2023-02-15T04:26:55;3.30;99.90
10883;DHT22;5494;51.796;10.952;2023-02-15T04:29:24;3.40;99.90
10883;DHT22;5494;51.796;10.952;2023-02-15T04:31:57;3.50;99.90
10883;DHT22;5494;51.796;10.952;2023-02-15T04:34:27;3.40;99.90
10883;DHT22;5494;51.796;10.952;2023-02-15T04:36:55;3.40;99.90
10883;DHT22;5494;51.796;10.952;2023-02-15T04:39:24;3.30;99.90
10883;DHT22;5494;51.796;10.952;2023-02-15T04:41:52;3.20;99.90
10883;DHT22;5494;51.796;10.952;2023-02-15T04:44:20;3.20;99.90
10883;DHT22;5494;51.796;10.952;2023-02-15T04:46:48;3.20;99.90
10883;DHT22;5494;51.796;10.952;2023-02-15T04:49:16;3.40;99.90
10883;DHT22;5494;51.796;10.952;2023-02-15T04:51:44;3.40;99.90
10883;DHT22;5494;51.796;10.952;2023-02-15T04:54:12;3.30;99.90
10883;DHT22;5494;51.796;10.952;2023-02-15T04:56:41;3.20;99.90
10883;DHT22;5494;51.796;10.952;2023-02-15T04:59:10;3.20;99.90
10883;DHT22;5494;51.796;10.952;2023-02-15T05:01:38;3.20;99.90
10883;DHT22;5494;51.796;10.952;2023-02-15T05:04:06;3.20;99.90
10883;DHT22;5494;51.796;10.952;2023-02-15T05:06:34;3.20;99.90
10883;DHT22;5494;51.796;10.952;2023-02-15T05:09:03;3.30;99.90
10883;DHT22;5494;51.796;10.952;2023-02-15T05:11:31;3.30;99.90
10883;DHT22;5494;51.796;10.952;2023-02-15T05:14:00;3.30;99.90
10883;DHT22;5494;51.796;10.952;2023-02-15T05:16:28;3.20;99.90
10883;DHT22;5494;51.796;10.952;2023-02-15T05:18:57;3.10;99.90
10883;DHT22;5494;51.796;10.952;2023-02-15T05:21:25;3.00;99.90
10883;DHT22;5494;51.796;10.952;2023-02-15T05:23:53;3.00;99.90
10883;DHT22;5494;51.796;10.952;2023-02-15T05:26:22;3.00;99.90
10883;DHT22;5494;51.796;10.952;2023-02-15T05:29:13;3.00;99.90
10883;DHT22;5494;51.796;10.952;2023-02-15T05:31:41;2.90;99.90
10883;DHT22;5494;51.796;10.952;2023-02-15T05:34:16;3.00;99.90
10883;DHT22;5494;51.796;10.952;2023-02-15T05:36:44;3.00;99.90
10883;DHT22;5494;51.796;10.952;2023-02-15T05:39:12;3.00;99.90
10883;DHT22;5494;51.796;10.952;2023-02-15T05:41:40;3.00;99.90
10883;DHT22;5494;51.796;10.952;2023-02-15T05:44:08;2.90;99.90
10883;DHT22;5494;51.796;10.952;2023-02-15T05:46:37;2.90;99.90
10883;DHT22;5494;51.796;10.952;2023-02-15T05:49:05;2.90;99.90
10883;DHT22;5494;51.796;10.952;2023-02-15T05:51:33;2.90;99.90
10883;DHT22;5494;51.796;10.952;2023-02-15T05:54:01;2.80;99.90
10883;DHT22;5494;51.796;10.952;2023-02-15T05:56:28;2.80;99.90
10883;DHT22;5494;51.796;10.952;2023-02-15T05:58:56;2.80;99.90
10883;DHT22;5494;51.796;10.952;2023-02-15T06:01:25;2.80;99.90
10883;DHT22;5494;51.796;10.952;2023-02-15T06:03:54;2.70;99.90
10883;DHT22;5494;51.796;10.952;2023-02-15T06:06:22;2.80;99.90
10883;DHT22;5494;51.796;10.952;2023-02-15T06:08:50;2.80;99.90
10883;DHT22;5494;51.796;10.952;2023-02-15T06:11:18;2.80;99.90
10883;DHT22;5494;51.796;10.952;2023-02-15T06:13:46;2.90;99.90
10883;DHT22;5494;51.796;10.952;2023-02-15T06:16:14;2.80;99.90
10883;DHT22;5494;51.796;10.952;2023-02-15T06:18:42;2.80;99.90
10883;DHT22;5494;51.796;10.952;2023-02-15T06:21:12;2.70;99.90
10883;DHT22;5494;51.796;10.952;2023-02-15T06:23:40;2.80;99.90
10883;DHT22;5494;51.796;10.952;2023-02-15T06:26:09;2.80;99.90
10883;DHT22;5494;51.796;10.952;2023-02-15T06:28:37;2.80;99.90
10883;DHT22;5494;51.796;10.952;2023-02-15T06:31:05;2.90;99.90
10883;DHT22;5494;51.796;10.952;2023-02-15T06:33:33;3.00;99.90
10883;DHT22;5494;51.796;10.952;2023-02-15T06:36:01;3.10;99.90
10883;DHT22;5494;51.796;10.952;2023-02-15T06:38:32;3.20;99.90
10883;DHT22;5494;51.796;10.952;2023-02-15T06:41:00;3.30;99.90
10883;DHT22;5494;51.796;10.952;2023-02-15T06:43:28;3.40;99.90
10883;DHT22;5494;51.796;10.952;2023-02-15T06:45:56;3.50;99.90
10883;DHT22;5494;51.796;10.952;2023-02-15T06:48:24;3.60;99.90
10883;DHT22;5494;51.796;10.952;2023-02-15T06:50:52;3.60;99.90
10883;DHT22;5494;51.796;10.952;2023-02-15T06:53:20;3.60;99.90
10883;DHT22;5494;51.796;10.952;2023-02-15T06:55:49;3.70;99.90
10883;DHT22;5494;51.796;10.952;2023-02-15T06:58:17;3.80;99.90
10883;DHT22;5494;51.796;10.952;2023-02-15T07:00:45;3.90;99.90
10883;DHT22;5494;51.796;10.952;2023-02-15T07:03:13;4.00;99.90
10883;DHT22;5494;51.796;10.952;2023-02-15T07:05:42;4.30;99.90
10883;DHT22;5494;51.796;10.952;2023-02-15T07:08:10;4.70;99.90
10883;DHT22;5494;51.796;10.952;2023-02-15T07:10:38;5.10;99.90
10883;DHT22;5494;51.796;10.952;2023-02-15T07:13:07;5.50;99.90
10883;DHT22;5494;51.796;10.952;2023-02-15T07:15:34;5.90;99.90
10883;DHT22;5494;51.796;10.952;2023-02-15T07:18:02;6.50;99.90
10883;DHT22;5494;51.796;10.952;2023-02-15T07:20:31;6.80;99.90
10883;DHT22;5494;51.796;10.952;2023-02-15T07:23:03;7.30;99.90
10883;DHT22;5494;51.796;10.952;2023-02-15T07:25:31;7.80;99.90
10883;DHT22;5494;51.796;10.952;2023-02-15T07:28:00;8.10;99.90
10883;DHT22;5494;51.796;10.952;2023-02-15T07:30:31;8.60;99.90
10883;DHT22;5494;51.796;10.952;2023-02-15T07:33:00;9.10;99.90
10883;DHT22;5494;51.796;10.952;2023-02-15T07:35:49;9.10;99.90
10883;DHT22;5494;51.796;10.952;2023-02-15T07:38:18;9.30;99.90
10883;DHT22;5494;51.796;10.952;2023-02-15T07:40:46;9.30;99.90
10883;DHT22;5494;51.796;10.952;2023-02-15T07:43:14;9.40;99.90
10883;DHT22;5494;51.796;10.952;2023-02-15T07:45:44;9.70;99.90
10883;DHT22;5494;51.796;10.952;2023-02-15T07:48:12;9.90;99.90
10883;DHT22;5494;51.796;10.952;2023-02-15T07:50:40;10.30;99.90
10883;DHT22;5494;51.796;10.952;2023-02-15T07:53:08;10.20;99.90
10883;DHT22;5494;51.796;10.952;2023-02-15T07:55:36;10.60;99.90
10883;DHT22;5494;51.796;10.952;2023-02-15T07:58:04;11.10;99.90
10883;DHT22;5494;51.796;10.952;2023-02-15T08:00:32;11.40;99.90
10883;DHT22;5494;51.796;10.952;2023-02-15T08:03:22;11.80;99.90
10883;DHT22;5494;51.796;10.952;2023-02-15T08:05:56;12.10;99.90
10883;DHT22;5494;51.796;10.952;2023-02-15T08:08:26;12.50;99.90
10883;DHT22;5494;51.796;10.952;2023-02-15T08:10:59;12.80;99.90
10883;DHT22;5494;51.796;10.952;2023-02-15T08:13:46;13.00;99.90
10883;DHT22;5494;51.796;10.952;2023-02-15T08:16:23;13.10;99.90
10883;DHT22;5494;51.796;10.952;2023-02-15T08:18:53;13.40;99.90
10883;DHT22;5494;51.796;10.952;2023-02-15T08:21:21;13.40;99.90
10883;DHT22;5494;51.796;10.952;2023-02-15T08:23:51;13.30;99.90
10883;DHT22;5494;51.796;10.952;2023-02-15T08:26:19;13.20;99.90
10883;DHT22;5494;51.796;10.952;2023-02-15T08:28:47;12.90;99.90
10883;DHT22;5494;51.796;10.952;2023-02-15T08:31:16;13.20;99.90
10883;DHT22;5494;51.796;10.952;2023-02-15T08:33:46;13.70;99.90
10883;DHT22;5494;51.796;10.952;2023-02-15T08:36:18;14.10;99.90
10883;DHT22;5494;51.796;10.952;2023-02-15T08:38:47;14.30;99.90
10883;DHT22;5494;51.796;10.952;2023-02-15T08:41:17;14.60;99.90
10883;DHT22;5494;51.796;10.952;2023-02-15T08:43:48;14.70;99.90
10883;DHT22;5494;51.796;10.952;2023-02-15T08:46:21;14.80;99.90
10883;DHT22;5494;51.796;10.952;2023-02-15T08:48:50;15.00;99.90
10883;DHT22;5494;51.796;10.952;2023-02-15T08:51:21;15.20;99.90
10883;DHT22;5494;51.796;10.952;2023-02-15T08:53:52;15.60;99.90
10883;DHT22;5494;51.796;10.952;2023-02-15T08:56:24;16.00;98.30
10883;DHT22;5494;51.796;10.952;2023-02-15T08:58:54;16.40;96.60
10883;DHT22;5494;51.796;10.952;2023-02-15T09:01:24;16.50;95.80
10883;DHT22;5494;51.796;10.952;2023-02-15T09:03:55;16.50;95.40
10883;DHT22;5494;51.796;10.952;2023-02-15T09:06:28;16.50;97.90
10883;DHT22;5494;51.796;10.952;2023-02-15T09:08:56;16.60;98.50
10883;DHT22;5494;51.796;10.952;2023-02-15T09:11:27;16.60;96.00
10883;DHT22;5494;51.796;10.952;2023-02-15T09:13:57;16.90;94.70
10883;DHT22;5494;51.796;10.952;2023-02-15T09:16:28;17.00;93.30
10883;DHT22;5494;51.796;10.952;2023-02-15T09:18:58;17.00;92.00
10883;DHT22;5494;51.796;10.952;2023-02-15T09:21:29;17.00;91.20
10883;DHT22;5494;51.796;10.952;2023-02-15T09:23:58;17.10;90.70
10883;DHT22;5494;51.796;10.952;2023-02-15T09:26:29;17.30;89.40
10883;DHT22;5494;51.796;10.952;2023-02-15T09:28:59;17.40;85.10
10883;DHT22;5494;51.796;10.952;2023-02-15T09:31:31;17.30;85.00
10883;DHT22;5494;51.796;10.952;2023-02-15T09:34:01;17.30;81.50
10883;DHT22;5494;51.796;10.952;2023-02-15T09:36:32;17.20;86.80
10883;DHT22;5494;51.796;10.952;2023-02-15T09:39:06;17.20;86.30
10883;DHT22;5494;51.796;10.952;2023-02-15T09:45:13;17.70;84.30
10883;DHT22;5494;51.796;10.952;2023-02-15T09:48:15;18.00;83.90
10883;DHT22;5494;51.796;10.952;2023-02-15T09:51:03;18.20;84.40
10883;DHT22;5494;51.796;10.952;2023-02-15T09:54:10;18.50;81.00
10883;DHT22;5494;51.796;10.952;2023-02-15T09:56:56;18.60;79.50
10883;DHT22;5494;51.796;10.952;2023-02-15T09:59:34;18.40;77.90
10883;DHT22;5494;51.796;10.952;2023-02-15T10:02:21;18.00;78.90
10883;DHT22;5494;51.796;10.952;2023-02-15T10:05:11;17.70;80.20
10883;DHT22;5494;51.796;10.952;2023-02-15T10:08:07;17.70;81.10
10883;DHT22;5494;51.796;10.952;2023-02-15T10:10:59;17.90;80.10
10883;DHT22;5494;51.796;10.952;2023-02-15T10:13:58;18.00;90.90
10883;DHT22;5494;51.796;10.952;2023-02-15T10:16:45;18.00;91.90
10883;DHT22;5494;51.796;10.952;2023-02-15T10:19:26;17.90;92.50
10883;DHT22;5494;51.796;10.952;2023-02-15T10:22:10;17.80;91.80
10883;DHT22;5494;51.796;10.952;2023-02-15T10:25:04;17.70;93.20
10883;DHT22;5494;51.796;10.952;2023-02-15T10:27:47;17.50;94.10
10883;DHT22;5494;51.796;10.952;2023-02-15T10:30:21;17.30;94.50
10883;DHT22;5494;51.796;10.952;2023-02-15T10:33:00;17.00;94.70
10883;DHT22;5494;51.796;10.952;2023-02-15T10:35:35;16.50;96.00
10883;DHT22;5494;51.796;10.952;2023-02-15T10:38:23;16.00;96.50
10883;DHT22;5494;51.796;10.952;2023-02-15T10:41:07;15.70;97.20
10883;DHT22;5494;51.796;10.952;2023-02-15T10:43:54;15.60;98.30
10883;DHT22;5494;51.796;10.952;2023-02-15T10:46:46;15.40;98.70
10883;DHT22;5494;51.796;10.952;2023-02-15T10:52:37;15.40;99.70
10883;DHT22;5494;51.796;10.952;2023-02-15T10:55:26;15.40;99.40
10883;DHT22;5494;51.796;10.952;2023-02-15T10:58:16;15.40;97.90
10883;DHT22;5494;51.796;10.952;2023-02-15T11:00:58;15.40;98.10
10883;DHT22;5494;51.796;10.952;2023-02-15T11:03:47;15.20;98.30
10883;DHT22;5494;51.796;10.952;2023-02-15T11:06:35;15.10;99.70
10883;DHT22;5494;51.796;10.952;2023-02-15T11:09:10;14.90;99.30
10883;DHT22;5494;51.796;10.952;2023-02-15T11:11:46;14.50;98.70
10883;DHT22;5494;51.796;10.952;2023-02-15T11:14:22;14.60;97.80
10883;DHT22;5494;51.796;10.952;2023-02-15T11:16:59;14.50;98.20
10883;DHT22;5494;51.796;10.952;2023-02-15T11:19:37;14.50;98.90
10883;DHT22;5494;51.796;10.952;2023-02-15T11:22:10;14.40;96.80
10883;DHT22;5494;51.796;10.952;2023-02-15T11:24:42;14.20;97.80
10883;DHT22;5494;51.796;10.952;2023-02-15T11:27:19;14.20;98.40
10883;DHT22;5494;51.796;10.952;2023-02-15T11:29:54;14.30;96.50
10883;DHT22;5494;51.796;10.952;2023-02-15T11:32:31;14.60;93.40
10883;DHT22;5494;51.796;10.952;2023-02-15T11:35:03;14.80;90.30
10883;DHT22;5494;51.796;10.952;2023-02-15T11:37:47;14.80;90.50
10883;DHT22;5494;51.796;10.952;2023-02-15T11:40:20;14.80;91.00
10883;DHT22;5494;51.796;10.952;2023-02-15T11:42:55;15.00;86.40
10883;DHT22;5494;51.796;10.952;2023-02-15T11:45:28;15.00;93.20
10883;DHT22;5494;51.796;10.952;2023-02-15T11:47:59;14.90;94.70
10883;DHT22;5494;51.796;10.952;2023-02-15T11:50:31;14.90;91.70
10883;DHT22;5494;51.796;10.952;2023-02-15T11:53:02;14.90;98.00
10883;DHT22;5494;51.796;10.952;2023-02-15T11:55:33;14.80;99.00
10883;DHT22;5494;51.796;10.952;2023-02-15T11:58:04;14.70;99.90
10883;DHT22;5494;51.796;10.952;2023-02-15T12:00:43;14.50;99.90
10883;DHT22;5494;51.796;10.952;2023-02-15T12:03:18;14.30;99.90
10883;DHT22;5494;51.796;10.952;2023-02-15T12:05:58;14.10;99.90
10883;DHT22;5494;51.796;10.952;2023-02-15T12:08:37;14.00;99.90
10883;DHT22;5494;51.796;10.952;2023-02-15T12:11:08;13.80;99.90
10883;DHT22;5494;51.796;10.952;2023-02-15T12:13:54;13.50;99.90
10883;DHT22;5494;51.796;10.952;2023-02-15T12:16:24;13.20;99.90
10883;DHT22;5494;51.796;10.952;2023-02-15T12:18:56;13.00;99.90
10883;DHT22;5494;51.796;10.952;2023-02-15T12:21:29;13.10;99.90
10883;DHT22;5494;51.796;10.952;2023-02-15T12:24:03;13.10;99.90
10883;DHT22;5494;51.796;10.952;2023-02-15T12:26:43;13.20;99.90
10883;DHT22;5494;51.796;10.952;2023-02-15T12:29:15;13.10;99.90
10883;DHT22;5494;51.796;10.952;2023-02-15T12:31:50;12.90;99.90
10883;DHT22;5494;51.796;10.952;2023-02-15T12:34:22;12.90;99.90
10883;DHT22;5494;51.796;10.952;2023-02-15T12:36:54;13.00;99.90
10883;DHT22;5494;51.796;10.952;2023-02-15T12:39:27;12.90;99.90
10883;DHT22;5494;51.796;10.952;2023-02-15T12:42:00;13.00;99.90
10883;DHT22;5494;51.796;10.952;2023-02-15T12:44:32;13.10;99.90
10883;DHT22;5494;51.796;10.952;2023-02-15T12:47:02;12.90;99.90
10883;DHT22;5494;51.796;10.952;2023-02-15T12:49:34;12.90;99.90
10883;DHT22;5494;51.796;10.952;2023-02-15T12:52:05;12.80;99.90
10883;DHT22;5494;51.796;10.952;2023-02-15T12:54:50;12.90;99.90
10883;DHT22;5494;51.796;10.952;2023-02-15T12:57:25;13.00;99.90
10883;DHT22;5494;51.796;10.952;2023-02-15T12:59:56;12.90;99.90
10883;DHT22;5494;51.796;10.952;2023-02-15T13:02:29;13.00;99.90
10883;DHT22;5494;51.796;10.952;2023-02-15T13:05:16;13.00;99.90
10883;DHT22;5494;51.796;10.952;2023-02-15T13:07:53;13.00;99.90
10883;DHT22;5494;51.796;10.952;2023-02-15T13:10:26;13.00;99.90
10883;DHT22;5494;51.796;10.952;2023-02-15T13:12:57;13.00;99.90
10883;DHT22;5494;51.796;10.952;2023-02-15T13:15:28;13.00;99.90
10883;DHT22;5494;51.796;10.952;2023-02-15T13:18:04;13.00;99.90
10883;DHT22;5494;51.796;10.952;2023-02-15T13:20:40;13.00;99.90
10883;DHT22;5494;51.796;10.952;2023-02-15T13:23:20;13.00;99.90
10883;DHT22;5494;51.796;10.952;2023-02-15T13:25:56;12.90;99.90
10883;DHT22;5494;51.796;10.952;2023-02-15T13:28:35;12.90;99.90
10883;DHT22;5494;51.796;10.952;2023-02-15T13:31:12;12.80;99.90
10883;DHT22;5494;51.796;10.952;2023-02-15T13:33:44;12.90;99.90
10883;DHT22;5494;51.796;10.952;2023-02-15T13:36:22;12.90;99.90
10883;DHT22;5494;51.796;10.952;2023-02-15T13:39:07;12.90;99.90
10883;DHT22;5494;51.796;10.952;2023-02-15T13:41:53;12.80;99.90
10883;DHT22;5494;51.796;10.952;2023-02-15T13:44:40;12.90;99.90
10883;DHT22;5494;51.796;10.952;2023-02-15T13:47:23;12.90;99.90
10883;DHT22;5494;51.796;10.952;2023-02-15T13:50:23;12.90;99.90
10883;DHT22;5494;51.796;10.952;2023-02-15T13:53:15;12.90;99.90
10883;DHT22;5494;51.796;10.952;2023-02-15T13:55:53;12.80;99.90
10883;DHT22;5494;51.796;10.952;2023-02-15T13:58:43;12.70;99.90
10883;DHT22;5494;51.796;10.952;2023-02-15T14:01:40;12.70;99.90
10883;DHT22;5494;51.796;10.952;2023-02-15T14:07:47;12.70;99.90
10883;DHT22;5494;51.796;10.952;2023-02-15T14:10:38;12.50;99.90
10883;DHT22;5494;51.796;10.952;2023-02-15T14:16:30;12.30;99.90
10883;DHT22;5494;51.796;10.952;2023-02-15T14:19:16;12.30;99.90
10883;DHT22;5494;51.796;10.952;2023-02-15T14:21:56;12.30;99.90
10883;DHT22;5494;51.796;10.952;2023-02-15T14:24:33;12.40;99.90
10883;DHT22;5494;51.796;10.952;2023-02-15T14:27:19;12.40;99.90
10883;DHT22;5494;51.796;10.952;2023-02-15T14:29:56;12.40;99.90
10883;DHT22;5494;51.796;10.952;2023-02-15T14:32:31;12.50;99.90
10883;DHT22;5494;51.796;10.952;2023-02-15T14:35:04;12.50;99.90
10883;DHT22;5494;51.796;10.952;2023-02-15T14:37:43;12.50;99.90
10883;DHT22;5494;51.796;10.952;2023-02-15T14:40:29;12.40;99.90
10883;DHT22;5494;51.796;10.952;2023-02-15T14:43:27;12.40;99.90
10883;DHT22;5494;51.796;10.952;2023-02-15T14:46:11;12.50;99.90
10883;DHT22;5494;51.796;10.952;2023-02-15T14:48:50;12.50;99.90
10883;DHT22;5494;51.796;10.952;2023-02-15T14:51:56;12.40;99.90
10883;DHT22;5494;51.796;10.952;2023-02-15T14:54:52;12.30;99.90
10883;DHT22;5494;51.796;10.952;2023-02-15T14:57:29;12.20;99.90
10883;DHT22;5494;51.796;10.952;2023-02-15T15:00:33;12.10;99.90
10883;DHT22;5494;51.796;10.952;2023-02-15T15:03:11;11.90;99.90
10883;DHT22;5494;51.796;10.952;2023-02-15T15:05:50;11.80;99.90
10883;DHT22;5494;51.796;10.952;2023-02-15T15:08:29;11.60;99.90
10883;DHT22;5494;51.796;10.952;2023-02-15T15:14:41;11.60;99.90
10883;DHT22;5494;51.796;10.952;2023-02-15T15:17:14;11.50;99.90
10883;DHT22;5494;51.796;10.952;2023-02-15T15:20:46;11.40;99.90
10883;DHT22;5494;51.796;10.952;2023-02-15T15:23:40;11.20;99.90
10883;DHT22;5494;51.796;10.952;2023-02-15T15:26:23;11.20;99.90
10883;DHT22;5494;51.796;10.952;2023-02-15T15:29:01;11.10;99.90
10883;DHT22;5494;51.796;10.952;2023-02-15T15:31:43;11.10;99.90
10883;DHT22;5494;51.796;10.952;2023-02-15T15:34:31;11.00;99.90
10883;DHT22;5494;51.796;10.952;2023-02-15T15:41:08;10.80;99.90
10883;DHT22;5494;51.796;10.952;2023-02-15T15:44:20;10.70;99.90
10883;DHT22;5494;51.796;10.952;2023-02-15T15:47:21;10.60;99.90
10883;DHT22;5494;51.796;10.952;2023-02-15T15:50:11;10.40;99.90
10883;DHT22;5494;51.796;10.952;2023-02-15T15:52:46;10.40;99.90
10883;DHT22;5494;51.796;10.952;2023-02-15T15:55:19;10.30;99.90
10883;DHT22;5494;51.796;10.952;2023-02-15T15:57:52;10.20;99.90
10883;DHT22;5494;51.796;10.952;2023-02-15T16:00:30;10.10;99.90
10883;DHT22;5494;51.796;10.952;2023-02-15T16:03:02;10.00;99.90
10883;DHT22;5494;51.796;10.952;2023-02-15T16:05:36;9.90;99.90
10883;DHT22;5494;51.796;10.952;2023-02-15T16:08:05;9.80;99.90
10883;DHT22;5494;51.796;10.952;2023-02-15T16:10:35;9.70;99.90
10883;DHT22;5494;51.796;10.952;2023-02-15T16:13:05;9.60;99.90
10883;DHT22;5494;51.796;10.952;2023-02-15T16:15:36;9.50;99.90
10883;DHT22;5494;51.796;10.952;2023-02-15T16:18:15;9.30;99.90
10883;DHT22;5494;51.796;10.952;2023-02-15T16:20:51;9.30;99.90
10883;DHT22;5494;51.796;10.952;2023-02-15T16:26:41;9.20;99.90
10883;DHT22;5494;51.796;10.952;2023-02-15T16:29:27;9.10;99.90
10883;DHT22;5494;51.796;10.952;2023-02-15T16:32:01;9.00;99.90
10883;DHT22;5494;51.796;10.952;2023-02-15T16:34:32;8.90;99.90
10883;DHT22;5494;51.796;10.952;2023-02-15T16:37:15;8.80;99.90
10883;DHT22;5494;51.796;10.952;2023-02-15T16:39:45;8.70;99.90
10883;DHT22;5494;51.796;10.952;2023-02-15T16:42:15;8.60;99.90
10883;DHT22;5494;51.796;10.952;2023-02-15T16:44:45;8.50;99.90
10883;DHT22;5494;51.796;10.952;2023-02-15T16:47:19;8.40;99.90
10883;DHT22;5494;51.796;10.952;2023-02-15T16:49:53;8.30;99.90
10883;DHT22;5494;51.796;10.952;2023-02-15T16:52:26;8.20;99.90
10883;DHT22;5494;51.796;10.952;2023-02-15T16:54:57;8.20;99.90
10883;DHT22;5494;51.796;10.952;2023-02-15T16:57:29;8.10;99.90